createdAt,value
2023-05-05T00:00:12.326Z,32.06
2023-05-05T00:01:12.395Z,31.98
2023-05-05T00:02:12.479Z,32.02
2023-05-05T00:03:12.589Z,32.06
2023-05-05T00:04:12.583Z,32.07
2023-05-05T00:05:12.590Z,32.02
2023-05-05T00:06:12.669Z,32.04
2023-05-05T00:07:12.722Z,31.99
2023-05-05T00:08:12.778Z,32.09
2023-05-05T00:09:12.834Z,32.06
2023-05-05T00:10:12.910Z,32.04
2023-05-05T00:11:12.979Z,32.03
2023-05-05T00:12:13.018Z,32.06
2023-05-05T00:13:13.181Z,32.04
2023-05-05T00:14:13.121Z,32.02
2023-05-05T00:15:13.198Z,32.03
2023-05-05T00:16:13.265Z,32.02
2023-05-05T00:17:13.393Z,32.05
2023-05-05T00:18:13.357Z,32.03
2023-05-05T00:19:13.343Z,32.09
2023-05-05T00:20:13.768Z,32.07
2023-05-05T00:21:13.368Z,31.99
2023-05-05T00:22:13.378Z,32.03
2023-05-05T00:23:13.400Z,32.03
2023-05-05T00:24:13.451Z,32.03
2023-05-05T00:25:13.498Z,31.97
2023-05-05T00:26:13.563Z,31.94
2023-05-05T00:27:13.640Z,31.94
2023-05-05T00:28:13.692Z,31.97
2023-05-05T00:29:13.732Z,31.94
2023-05-05T00:30:13.798Z,32.01
2023-05-05T00:31:13.867Z,32.02
2023-05-05T00:32:13.888Z,31.98
2023-05-05T00:33:13.978Z,31.98
2023-05-05T00:34:14.016Z,31.95
2023-05-05T00:35:14.099Z,31.96
2023-05-05T00:36:14.132Z,31.97
2023-05-05T00:37:14.193Z,31.95
2023-05-05T00:38:14.269Z,31.90
2023-05-05T00:39:14.280Z,31.89
2023-05-05T00:40:14.298Z,31.94
2023-05-05T00:41:14.311Z,31.90
2023-05-05T00:42:14.304Z,31.91
2023-05-05T00:43:14.326Z,31.86
2023-05-05T00:44:14.312Z,31.84
2023-05-05T00:45:14.355Z,31.89
2023-05-05T00:46:14.384Z,31.88
2023-05-05T00:47:14.378Z,31.88
2023-05-05T00:48:14.378Z,31.91
2023-05-05T00:49:14.402Z,31.90
2023-05-05T00:50:14.372Z,31.90
2023-05-05T00:51:14.387Z,31.82
2023-05-05T00:52:14.432Z,31.92
2023-05-05T00:53:14.436Z,31.85
2023-05-05T00:54:14.429Z,31.87
2023-05-05T00:55:14.447Z,31.88
2023-05-05T00:56:14.468Z,31.91
2023-05-05T00:57:14.469Z,31.88
2023-05-05T00:58:14.505Z,31.86
2023-05-05T00:59:14.478Z,31.90
2023-05-05T01:00:14.498Z,31.87
2023-05-05T01:01:14.517Z,31.87
2023-05-05T01:02:14.504Z,31.84
2023-05-05T01:03:14.634Z,31.87
2023-05-05T01:04:14.573Z,31.85
2023-05-05T01:05:14.555Z,31.86
2023-05-05T01:06:14.593Z,31.87
2023-05-05T01:07:14.613Z,31.84
2023-05-05T01:08:14.669Z,31.81
2023-05-05T01:09:14.729Z,31.82
2023-05-05T01:10:20.177Z,31.84
2023-05-05T01:11:15.778Z,31.84
2023-05-05T01:12:14.785Z,31.77
2023-05-05T01:13:14.853Z,31.75
2023-05-05T01:14:14.772Z,31.79
2023-05-05T01:15:14.777Z,31.78
2023-05-05T01:16:14.834Z,31.76
2023-05-05T01:17:14.716Z,31.73
2023-05-05T01:18:14.728Z,31.75
2023-05-05T01:19:14.698Z,31.78
2023-05-05T01:20:14.694Z,31.74
2023-05-05T01:21:14.765Z,31.80
2023-05-05T01:22:14.792Z,31.77
2023-05-05T01:23:14.864Z,31.81
2023-05-05T01:24:14.912Z,31.77
2023-05-05T01:25:14.981Z,31.79
2023-05-05T01:26:15.055Z,31.74
2023-05-05T01:27:15.103Z,31.71
2023-05-05T01:28:15.165Z,31.70
2023-05-05T01:29:15.181Z,31.76
2023-05-05T01:30:15.269Z,31.73
2023-05-05T01:31:15.406Z,31.75
2023-05-05T01:32:15.357Z,31.72
2023-05-05T01:33:15.367Z,31.72
2023-05-05T01:34:15.352Z,31.70
2023-05-05T01:35:15.381Z,31.71
2023-05-05T01:36:15.383Z,31.73
2023-05-05T01:37:15.444Z,31.72
2023-05-05T01:38:15.510Z,31.70
2023-05-05T01:39:15.573Z,31.76
2023-05-05T01:40:15.615Z,31.75
2023-05-05T01:41:15.683Z,31.73
2023-05-05T01:42:15.748Z,31.73
2023-05-05T01:43:15.805Z,31.71
2023-05-05T01:44:15.837Z,31.69
2023-05-05T01:45:15.891Z,31.70
2023-05-05T01:46:16.110Z,31.76
2023-05-05T01:47:16.033Z,31.73
2023-05-05T01:48:16.077Z,31.74
2023-05-05T01:49:16.110Z,31.74
2023-05-05T01:50:16.151Z,31.73
2023-05-05T01:51:16.166Z,31.69
2023-05-05T01:52:16.155Z,31.72
2023-05-05T01:53:16.157Z,31.67
2023-05-05T01:54:16.205Z,31.68
2023-05-05T01:55:16.207Z,31.67
2023-05-05T01:56:16.207Z,31.69
2023-05-05T01:57:16.210Z,31.68
2023-05-05T01:58:16.224Z,31.69
2023-05-05T01:59:16.227Z,31.70
2023-05-05T02:00:16.238Z,31.65
2023-05-05T02:01:16.274Z,31.65
2023-05-05T02:02:16.298Z,31.71
2023-05-05T02:03:16.391Z,31.72
2023-05-05T02:04:16.259Z,31.66
2023-05-05T02:05:16.280Z,31.69
2023-05-05T02:06:16.282Z,31.66
2023-05-05T02:07:16.317Z,31.60
2023-05-05T02:08:16.290Z,31.67
2023-05-05T02:09:16.325Z,31.54
2023-05-05T02:10:16.308Z,31.58
2023-05-05T02:11:16.345Z,31.60
2023-05-05T02:12:16.345Z,31.54
2023-05-05T02:13:16.498Z,31.63
2023-05-05T02:14:16.379Z,31.62
2023-05-05T02:15:16.371Z,31.61
2023-05-05T02:16:16.433Z,31.56
2023-05-05T02:17:16.393Z,31.57
2023-05-05T02:18:16.395Z,31.60
2023-05-05T02:19:16.406Z,31.61
2023-05-05T02:20:16.394Z,31.60
2023-05-05T02:21:16.429Z,31.58
2023-05-05T02:22:16.459Z,31.60
2023-05-05T02:23:16.440Z,31.57
2023-05-05T02:24:16.466Z,31.59
2023-05-05T02:25:16.471Z,31.61
2023-05-05T02:26:16.490Z,31.59
2023-05-05T02:27:16.480Z,31.56
2023-05-05T02:28:16.503Z,31.57
2023-05-05T02:29:16.505Z,31.67
2023-05-05T02:30:16.499Z,31.57
2023-05-05T02:31:16.558Z,31.57
2023-05-05T02:32:16.520Z,31.54
2023-05-05T02:33:16.559Z,31.58
2023-05-05T02:34:16.553Z,31.53
2023-05-05T02:35:16.545Z,31.57
2023-05-05T02:36:16.586Z,31.51
2023-05-05T02:37:16.580Z,31.53
2023-05-05T02:38:16.603Z,31.54
2023-05-05T02:39:16.618Z,31.54
2023-05-05T02:40:16.601Z,31.52
2023-05-05T02:41:16.682Z,31.53
2023-05-05T02:42:16.688Z,31.51
2023-05-05T02:43:16.808Z,31.54
2023-05-05T02:44:16.739Z,31.48
2023-05-05T02:45:16.758Z,31.44
2023-05-05T02:46:16.790Z,31.49
2023-05-05T02:47:16.799Z,31.44
2023-05-05T02:48:16.839Z,31.44
2023-05-05T02:49:16.875Z,31.43
2023-05-05T02:50:16.889Z,31.52
2023-05-05T02:51:16.893Z,31.48
2023-05-05T02:52:16.904Z,31.48
2023-05-05T02:53:16.902Z,31.47
2023-05-05T02:54:16.946Z,31.49
2023-05-05T02:55:16.941Z,31.43
2023-05-05T02:56:16.924Z,31.48
2023-05-05T02:57:16.944Z,31.48
2023-05-05T02:58:16.952Z,31.52
2023-05-05T02:59:17.011Z,31.57
2023-05-05T03:00:17.060Z,31.54
2023-05-05T03:01:17.088Z,31.54
2023-05-05T03:02:17.086Z,31.58
2023-05-05T03:03:17.149Z,31.58
2023-05-05T03:04:17.086Z,31.60
2023-05-05T03:05:17.093Z,31.58
2023-05-05T03:06:17.167Z,31.57
2023-05-05T03:07:17.157Z,31.58
2023-05-05T03:08:17.213Z,31.57
2023-05-05T03:09:17.246Z,31.57
2023-05-05T03:10:17.312Z,31.56
2023-05-05T03:11:17.350Z,31.56
2023-05-05T03:12:17.383Z,31.57
2023-05-05T03:13:17.433Z,31.57
2023-05-05T03:14:17.501Z,31.54
2023-05-05T03:15:17.508Z,31.52
2023-05-05T03:16:17.610Z,31.52
2023-05-05T03:17:17.621Z,31.49
2023-05-05T03:18:17.698Z,31.47
2023-05-05T03:19:17.697Z,31.48
2023-05-05T03:20:17.753Z,31.45
2023-05-05T03:21:17.793Z,31.44
2023-05-05T03:22:17.854Z,31.43
2023-05-05T03:23:17.850Z,31.42
2023-05-05T03:24:17.881Z,31.40
2023-05-05T03:25:17.933Z,31.36
2023-05-05T03:26:17.999Z,31.36
2023-05-05T03:27:18.014Z,31.34
2023-05-05T03:28:18.054Z,31.33
2023-05-05T03:29:18.034Z,31.31
2023-05-05T03:30:18.053Z,31.29
2023-05-05T03:31:18.134Z,31.26
2023-05-05T03:32:18.098Z,31.29
2023-05-05T03:33:18.114Z,31.25
2023-05-05T03:34:18.119Z,31.22
2023-05-05T03:35:18.094Z,31.23
2023-05-05T03:36:18.163Z,31.22
2023-05-05T03:37:18.143Z,31.17
2023-05-05T03:38:18.146Z,31.19
2023-05-05T03:39:18.191Z,31.20
2023-05-05T03:40:18.175Z,31.16
2023-05-05T03:41:18.225Z,31.13
2023-05-05T03:42:18.250Z,31.14
2023-05-05T03:43:18.254Z,31.15
2023-05-05T03:44:18.210Z,31.12
2023-05-05T03:45:18.251Z,31.08
2023-05-05T03:46:18.368Z,31.10
2023-05-05T03:47:18.274Z,31.09
2023-05-05T03:48:18.329Z,31.08
2023-05-05T03:49:18.356Z,31.07
2023-05-05T03:50:18.354Z,31.07
2023-05-05T03:51:18.406Z,31.06
2023-05-05T03:52:18.429Z,31.05
2023-05-05T03:53:18.477Z,31.04
2023-05-05T03:54:18.502Z,31.04
2023-05-05T03:55:18.526Z,31.04
2023-05-05T03:56:18.571Z,31.04
2023-05-05T03:57:18.602Z,31.05
2023-05-05T03:58:18.624Z,31.04
2023-05-05T03:59:18.670Z,31.02
2023-05-05T04:00:18.667Z,31.01
2023-05-05T04:01:18.670Z,31.02
2023-05-05T04:02:19.015Z,31.02
2023-05-05T04:03:18.885Z,31.00
2023-05-05T04:04:18.852Z,31.01
2023-05-05T04:05:18.838Z,30.99
2023-05-05T04:06:18.882Z,30.98
2023-05-05T04:07:18.885Z,31.02
2023-05-05T04:08:18.906Z,31.02
2023-05-05T04:09:18.945Z,31.00
2023-05-05T04:10:18.982Z,30.98
2023-05-05T04:11:18.998Z,30.98
2023-05-05T04:12:19.057Z,30.97
2023-05-05T04:13:19.099Z,30.96
2023-05-05T04:14:19.225Z,30.97
2023-05-05T04:15:19.077Z,30.98
2023-05-05T04:16:19.136Z,30.95
2023-05-05T04:17:19.098Z,30.99
2023-05-05T04:18:19.109Z,30.96
2023-05-05T04:19:19.159Z,30.99
2023-05-05T04:20:19.188Z,30.96
2023-05-05T04:21:19.205Z,30.96
2023-05-05T04:22:19.240Z,30.95
2023-05-05T04:23:19.282Z,30.94
2023-05-05T04:24:19.334Z,30.96
2023-05-05T04:25:19.380Z,30.95
2023-05-05T04:26:19.405Z,30.95
2023-05-05T04:27:19.415Z,30.95
2023-05-05T04:28:21.628Z,30.92
2023-05-05T04:29:19.599Z,30.95
2023-05-05T04:30:19.624Z,30.96
2023-05-05T04:31:19.694Z,30.93
2023-05-05T04:32:19.671Z,30.94
2023-05-05T04:33:19.648Z,30.94
2023-05-05T04:34:19.659Z,30.96
2023-05-05T04:35:19.709Z,30.94
2023-05-05T04:36:19.771Z,30.93
2023-05-05T04:37:19.787Z,30.94
2023-05-05T04:38:19.861Z,30.94
2023-05-05T04:39:19.820Z,30.93
2023-05-05T04:40:19.858Z,30.97
2023-05-05T04:41:19.878Z,30.93
2023-05-05T04:42:19.922Z,30.95
2023-05-05T04:43:19.942Z,30.95
2023-05-05T04:44:19.955Z,30.97
2023-05-05T04:45:20.016Z,30.95
2023-05-05T04:46:20.064Z,30.97
2023-05-05T04:47:20.061Z,30.94
2023-05-05T04:48:20.105Z,30.95
2023-05-05T04:49:20.110Z,30.95
2023-05-05T04:50:20.153Z,30.96
2023-05-05T04:51:20.201Z,30.93
2023-05-05T04:52:20.194Z,30.95
2023-05-05T04:53:20.226Z,30.93
2023-05-05T04:54:20.271Z,30.95
2023-05-05T04:55:20.285Z,30.91
2023-05-05T04:56:20.324Z,30.91
2023-05-05T04:57:20.339Z,30.96
2023-05-05T04:58:20.409Z,30.96
2023-05-05T04:59:20.421Z,30.95
2023-05-05T05:00:20.435Z,30.98
2023-05-05T05:01:27.956Z,30.94
2023-05-05T05:02:20.461Z,30.93
2023-05-05T05:03:20.485Z,30.91
2023-05-05T05:04:20.433Z,30.94
2023-05-05T05:05:20.388Z,30.90
2023-05-05T05:06:20.408Z,30.91
2023-05-05T05:07:20.399Z,30.88
2023-05-05T05:08:20.411Z,30.88
2023-05-05T05:09:20.393Z,30.90
2023-05-05T05:10:20.383Z,30.90
2023-05-05T05:11:20.367Z,30.91
2023-05-05T05:12:20.391Z,30.93
2023-05-05T05:13:20.428Z,30.90
2023-05-05T05:14:20.371Z,30.89
2023-05-05T05:15:20.407Z,30.87
2023-05-05T05:16:20.418Z,30.87
2023-05-05T05:17:20.374Z,30.84
2023-05-05T05:18:20.325Z,30.88
2023-05-05T05:19:20.304Z,30.88
2023-05-05T05:20:20.361Z,30.88
2023-05-05T05:21:20.313Z,30.88
2023-05-05T05:22:20.301Z,30.87
2023-05-05T05:23:20.282Z,30.89
2023-05-05T05:24:20.280Z,30.87
2023-05-05T05:25:20.273Z,30.88
2023-05-05T05:26:20.290Z,30.88
2023-05-05T05:27:20.281Z,30.87
2023-05-05T05:28:20.244Z,30.89
2023-05-05T05:30:20.564Z,30.87
2023-05-05T05:31:20.605Z,30.87
2023-05-05T05:32:20.501Z,30.87
2023-05-05T05:33:20.535Z,30.87
2023-05-05T05:34:20.527Z,30.74
2023-05-05T05:35:20.500Z,30.82
2023-05-05T05:36:20.568Z,30.88
2023-05-05T05:37:20.514Z,30.97
2023-05-05T05:38:20.568Z,31.08
2023-05-05T05:39:20.467Z,31.15
2023-05-05T05:40:20.500Z,31.33
2023-05-05T05:41:20.484Z,31.09
2023-05-05T05:42:20.454Z,29.94
2023-05-05T05:43:20.449Z,30.09
2023-05-05T05:44:20.426Z,29.94
2023-05-05T05:45:20.480Z,29.92
2023-05-05T05:46:27.532Z,30.16
2023-05-05T05:47:20.755Z,30.57
2023-05-05T05:48:20.412Z,30.90
2023-05-05T05:49:20.439Z,30.95
2023-05-05T05:50:20.403Z,31.18
2023-05-05T05:51:20.407Z,31.33
2023-05-05T05:52:20.419Z,31.25
2023-05-05T05:53:20.421Z,31.13
2023-05-05T05:54:20.348Z,31.11
2023-05-05T05:55:20.354Z,31.01
2023-05-05T05:56:20.379Z,31.09
2023-05-05T05:57:20.390Z,30.93
2023-05-05T05:58:20.349Z,31.11
2023-05-05T05:59:20.362Z,31.44
2023-05-05T06:00:20.330Z,31.65
2023-05-05T06:01:20.354Z,31.50
2023-05-05T06:02:20.416Z,31.82
2023-05-05T06:03:20.445Z,32.00
2023-05-05T06:04:20.303Z,32.11
2023-05-05T06:05:20.304Z,32.14
2023-05-05T06:06:20.286Z,32.19
2023-05-05T06:07:20.331Z,32.10
2023-05-05T06:08:20.286Z,32.30
2023-05-05T06:09:20.266Z,32.34
2023-05-05T06:10:27.859Z,32.40
2023-05-05T06:11:21.272Z,32.24
2023-05-05T06:12:20.250Z,32.44
2023-05-05T06:13:20.265Z,32.48
2023-05-05T06:14:20.287Z,32.52
2023-05-05T06:15:20.237Z,32.57
2023-05-05T06:16:20.276Z,32.61
2023-05-05T06:17:20.223Z,32.62
2023-05-05T06:18:20.284Z,32.59
2023-05-05T06:19:20.190Z,32.41
2023-05-05T06:20:20.203Z,32.58
2023-05-05T06:21:20.227Z,32.69
2023-05-05T06:22:20.189Z,32.71
2023-05-05T06:23:20.172Z,32.78
2023-05-05T06:24:20.771Z,32.81
2023-05-05T06:25:20.165Z,32.92
2023-05-05T06:26:20.167Z,32.94
2023-05-05T06:27:20.136Z,33.11
2023-05-05T06:28:20.273Z,33.11
2023-05-05T06:29:20.199Z,33.06
2023-05-05T06:30:20.247Z,33.11
2023-05-05T06:31:20.315Z,33.23
2023-05-05T06:32:20.328Z,33.25
2023-05-05T06:33:20.367Z,33.28
2023-05-05T06:34:20.369Z,33.33
2023-05-05T06:35:20.404Z,33.34
2023-05-05T06:36:20.511Z,33.36
2023-05-05T06:37:20.533Z,31.57
2023-05-05T06:38:20.533Z,32.41
2023-05-05T06:39:20.518Z,32.73
2023-05-05T06:40:20.542Z,32.71
2023-05-05T06:41:20.602Z,32.67
2023-05-05T06:42:20.631Z,33.10
2023-05-05T06:43:20.670Z,33.19
2023-05-05T06:44:20.700Z,33.35
2023-05-05T06:45:20.719Z,33.46
2023-05-05T06:46:20.843Z,33.56
2023-05-05T06:47:20.813Z,33.59
2023-05-05T06:48:21.282Z,34.25
2023-05-05T06:49:20.926Z,34.13
2023-05-05T06:50:20.951Z,33.97
2023-05-05T06:51:20.933Z,33.92
2023-05-05T06:52:20.978Z,33.81
2023-05-05T06:53:21.285Z,33.44
2023-05-05T06:54:21.021Z,33.72
2023-05-05T06:55:21.068Z,33.69
2023-05-05T06:56:21.176Z,33.52
2023-05-05T06:57:21.153Z,33.39
2023-05-05T06:58:21.334Z,33.39
2023-05-05T06:59:21.207Z,33.30
2023-05-05T07:00:21.215Z,33.23
2023-05-05T07:01:21.316Z,33.05
2023-05-05T07:02:21.313Z,31.72
2023-05-05T07:03:21.421Z,31.84
2023-05-05T07:04:22.318Z,31.52
2023-05-05T07:05:21.350Z,31.08
2023-05-05T07:06:21.298Z,31.67
2023-05-05T07:07:21.326Z,32.06
2023-05-05T07:08:21.341Z,31.85
2023-05-05T07:09:21.370Z,31.18
2023-05-05T07:10:21.392Z,31.81
2023-05-05T07:11:21.438Z,31.84
2023-05-05T07:12:21.481Z,31.88
2023-05-05T07:13:21.525Z,31.75
2023-05-05T07:14:24.128Z,31.23
2023-05-05T07:15:28.850Z,30.74
2023-05-05T07:16:22.631Z,30.74
2023-05-05T07:17:21.596Z,31.18
2023-05-05T07:18:21.615Z,30.90
2023-05-05T07:19:21.534Z,31.13
2023-05-05T07:20:21.557Z,31.12
2023-05-05T07:21:21.548Z,31.32
2023-05-05T07:22:21.557Z,30.85
2023-05-05T07:23:21.480Z,30.42
2023-05-05T07:24:21.538Z,29.84
2023-05-05T07:25:21.532Z,30.34
2023-05-05T07:26:21.526Z,29.79
2023-05-05T07:27:21.497Z,30.13
2023-05-05T07:28:21.490Z,29.63
2023-05-05T07:29:21.421Z,30.07
2023-05-05T07:30:21.656Z,30.22
2023-05-05T07:31:21.464Z,30.36
2023-05-05T07:32:21.682Z,30.44
2023-05-05T07:33:21.811Z,30.41
2023-05-05T07:34:21.568Z,30.21
2023-05-05T07:35:21.636Z,30.52
2023-05-05T07:36:21.653Z,31.22
2023-05-05T07:37:21.662Z,31.34
2023-05-05T07:38:21.643Z,31.56
2023-05-05T07:39:23.307Z,31.61
2023-05-05T07:40:21.676Z,31.76
2023-05-05T07:41:21.622Z,32.23
2023-05-05T07:42:21.635Z,32.12
2023-05-05T07:43:21.662Z,32.17
2023-05-05T07:44:21.677Z,32.35
2023-05-05T07:45:21.743Z,32.42
2023-05-05T07:46:21.855Z,32.57
2023-05-05T07:47:21.930Z,32.69
2023-05-05T07:48:21.945Z,32.73
2023-05-05T07:49:21.974Z,32.74
2023-05-05T07:50:21.994Z,32.87
2023-05-05T07:51:22.056Z,32.90
2023-05-05T07:52:33.075Z,32.92
2023-05-05T07:53:23.127Z,33.02
2023-05-05T07:54:22.113Z,33.12
2023-05-05T07:55:22.104Z,33.23
2023-05-05T07:56:22.097Z,33.12
2023-05-05T07:57:22.100Z,33.16
2023-05-05T07:58:22.117Z,33.13
2023-05-05T07:59:22.075Z,33.06
2023-05-05T08:00:22.106Z,32.82
2023-05-05T08:01:22.091Z,32.94
2023-05-05T08:02:22.191Z,32.93
2023-05-05T08:03:22.292Z,33.07
2023-05-05T08:04:22.307Z,33.06
2023-05-05T08:05:22.327Z,32.95
2023-05-05T08:06:22.419Z,32.97
2023-05-05T08:07:22.311Z,32.86
2023-05-05T08:08:22.395Z,32.80
2023-05-05T08:09:22.393Z,32.76
2023-05-05T08:10:22.457Z,32.84
2023-05-05T08:11:22.441Z,32.80
2023-05-05T08:12:22.519Z,32.75
2023-05-05T08:13:22.552Z,32.60
2023-05-05T08:14:22.604Z,32.54
2023-05-05T08:15:23.296Z,32.53
2023-05-05T08:16:22.664Z,32.46
2023-05-05T08:17:22.666Z,32.36
2023-05-05T08:18:22.637Z,32.52
2023-05-05T08:19:28.793Z,32.51
2023-05-05T08:20:23.776Z,32.33
2023-05-05T08:21:22.642Z,32.37
2023-05-05T08:22:22.675Z,32.20
2023-05-05T08:23:22.593Z,32.18
2023-05-05T08:24:22.713Z,32.18
2023-05-05T08:25:22.551Z,32.21
2023-05-05T08:26:22.576Z,32.16
2023-05-05T08:27:23.341Z,32.12
2023-05-05T08:28:22.785Z,32.09
2023-05-05T08:29:22.537Z,32.01
2023-05-05T08:30:22.557Z,31.99
2023-05-05T08:31:22.588Z,30.87
2023-05-05T08:32:22.519Z,31.33
2023-05-05T08:33:22.840Z,31.43
2023-05-05T08:34:22.535Z,31.47
2023-05-05T08:35:22.530Z,31.46
2023-05-05T08:36:22.668Z,31.35
2023-05-05T08:37:22.694Z,31.31
2023-05-05T08:38:22.690Z,31.29
2023-05-05T08:39:22.746Z,31.21
2023-05-05T08:40:22.863Z,30.96
2023-05-05T08:41:22.820Z,30.96
2023-05-05T08:42:36.091Z,30.87
2023-05-05T08:43:23.886Z,30.80
2023-05-05T08:44:23.084Z,30.71
2023-05-05T08:45:22.803Z,30.61
2023-05-05T08:46:22.856Z,30.53
2023-05-05T08:47:22.820Z,30.47
2023-05-05T08:48:22.793Z,30.40
2023-05-05T08:49:22.820Z,30.34
2023-05-05T08:50:22.823Z,29.98
2023-05-05T08:51:22.759Z,29.95
2023-05-05T08:52:22.836Z,30.05
2023-05-05T08:53:22.825Z,29.97
2023-05-05T08:54:22.750Z,29.99
2023-05-05T08:55:22.751Z,30.08
2023-05-05T08:56:22.731Z,30.17
2023-05-05T08:57:22.762Z,30.33
2023-05-05T08:58:22.849Z,30.54
2023-05-05T08:59:22.861Z,30.70
2023-05-05T09:00:22.995Z,30.74
2023-05-05T09:01:22.958Z,31.00
2023-05-05T09:02:22.964Z,31.04
2023-05-05T09:03:22.960Z,30.90
2023-05-05T09:04:22.978Z,30.93
2023-05-05T09:05:23.005Z,31.11
2023-05-05T09:06:23.094Z,31.01
2023-05-05T09:07:23.130Z,30.99
2023-05-05T09:08:23.400Z,31.10
2023-05-05T09:09:23.268Z,31.13
2023-05-05T09:10:23.313Z,31.20
2023-05-05T09:11:23.330Z,31.37
2023-05-05T09:12:23.374Z,31.30
2023-05-05T09:13:23.421Z,31.18
2023-05-05T09:14:23.487Z,31.24
2023-05-05T09:15:23.610Z,30.97
2023-05-05T09:16:23.609Z,31.11
2023-05-05T09:17:23.758Z,31.29
2023-05-05T09:18:23.748Z,31.26
2023-05-05T09:19:23.786Z,30.99
2023-05-05T09:20:23.839Z,30.75
2023-05-05T09:21:23.879Z,30.71
2023-05-05T09:22:24.057Z,30.65
2023-05-05T09:23:23.990Z,30.61
2023-05-05T09:24:24.131Z,30.48
2023-05-05T09:25:24.139Z,30.49
2023-05-05T09:26:24.186Z,30.47
2023-05-05T09:27:24.256Z,30.32
2023-05-05T09:28:24.311Z,30.08
2023-05-05T09:29:24.379Z,30.03
2023-05-05T09:30:24.457Z,29.85
2023-05-05T09:31:24.615Z,29.77
2023-05-05T09:32:24.667Z,29.70
2023-05-05T09:33:24.844Z,29.57
2023-05-05T09:34:24.720Z,29.60
2023-05-05T09:35:24.775Z,29.57
2023-05-05T09:36:24.790Z,30.50
2023-05-05T09:37:24.855Z,30.38
2023-05-05T09:38:24.922Z,30.28
2023-05-05T09:39:24.957Z,29.98
2023-05-05T09:40:25.113Z,29.81
2023-05-05T09:41:25.083Z,29.38
2023-05-05T09:42:25.134Z,29.18
2023-05-05T09:43:25.396Z,29.07
2023-05-05T09:44:25.278Z,28.66
2023-05-05T09:45:25.314Z,28.62
2023-05-05T09:46:25.480Z,28.76
2023-05-05T09:47:29.738Z,28.30
2023-05-05T09:48:25.465Z,28.01
2023-05-05T09:49:25.865Z,28.40
2023-05-05T09:50:25.391Z,28.16
2023-05-05T09:51:25.372Z,28.12
2023-05-05T09:52:25.396Z,28.24
2023-05-05T09:53:25.408Z,28.27
2023-05-05T09:54:25.421Z,28.16
2023-05-05T09:55:25.376Z,28.21
2023-05-05T09:56:25.424Z,28.25
2023-05-05T09:57:25.339Z,28.20
2023-05-05T09:58:25.390Z,28.17
2023-05-05T09:59:25.345Z,28.35
2023-05-05T10:00:25.345Z,28.47
2023-05-05T10:01:25.407Z,28.27
2023-05-05T10:02:25.335Z,28.44
2023-05-05T10:03:25.314Z,28.34
2023-05-05T10:04:25.445Z,28.19
2023-05-05T10:05:25.414Z,28.18
2023-05-05T10:06:25.310Z,28.20
2023-05-05T10:07:25.335Z,28.33
2023-05-05T10:08:25.261Z,28.46
2023-05-05T10:09:25.281Z,28.57
2023-05-05T10:10:26.468Z,28.54
2023-05-05T10:11:25.244Z,28.52
2023-05-05T10:12:25.311Z,28.42
2023-05-05T10:13:25.240Z,28.38
2023-05-05T10:14:25.248Z,28.31
2023-05-05T10:15:25.247Z,28.11
2023-05-05T10:16:26.340Z,28.07
2023-05-05T10:17:25.409Z,27.97
2023-05-05T10:18:25.543Z,27.88
2023-05-05T10:19:25.445Z,27.81
2023-05-05T10:20:25.408Z,27.90
2023-05-05T10:21:25.411Z,28.11
2023-05-05T10:22:25.463Z,28.33
2023-05-05T10:23:25.401Z,28.41
2023-05-05T10:24:25.443Z,28.39
2023-05-05T10:25:25.455Z,28.71
2023-05-05T10:26:25.424Z,28.98
2023-05-05T10:27:25.432Z,29.38
2023-05-05T10:28:25.508Z,29.51
2023-05-05T10:29:25.842Z,29.63
2023-05-05T10:30:25.458Z,29.57
2023-05-05T10:31:26.774Z,29.55
2023-05-05T10:32:51.527Z,29.53
2023-05-05T10:33:31.164Z,29.54
2023-05-05T10:34:26.521Z,29.54
2023-05-05T10:35:25.442Z,29.52
2023-05-05T10:36:25.425Z,29.52
2023-05-05T10:37:25.417Z,29.50
2023-05-05T10:38:26.742Z,29.51
2023-05-05T10:39:25.430Z,29.51
2023-05-05T10:40:25.410Z,29.51
2023-05-05T10:41:25.384Z,29.51
2023-05-05T10:42:25.388Z,29.52
2023-05-05T10:43:25.416Z,29.50
2023-05-05T10:44:25.400Z,29.48
2023-05-05T10:45:25.426Z,29.51
2023-05-05T10:46:25.404Z,29.53
2023-05-05T10:47:25.340Z,29.53
2023-05-05T10:48:25.368Z,29.54
2023-05-05T10:49:25.320Z,29.53
2023-05-05T10:50:25.331Z,29.53
2023-05-05T10:51:38.649Z,29.53
2023-05-05T10:52:26.329Z,29.56
2023-05-05T10:53:25.310Z,29.57
2023-05-05T10:54:25.371Z,29.58
2023-05-05T10:55:25.279Z,29.55
2023-05-05T10:56:25.283Z,29.56
2023-05-05T10:57:25.269Z,29.56
2023-05-05T10:58:25.270Z,29.56
2023-05-05T10:59:25.239Z,29.57
2023-05-05T11:00:26.887Z,29.56
2023-05-05T11:01:25.260Z,29.56
2023-05-05T11:02:25.339Z,29.56
2023-05-05T11:03:25.300Z,29.56
2023-05-05T11:04:25.216Z,29.59
2023-05-05T11:05:25.192Z,29.60
2023-05-05T11:06:25.211Z,29.57
2023-05-05T11:07:25.198Z,29.60
2023-05-05T11:08:25.261Z,29.59
2023-05-05T11:09:25.272Z,29.59
2023-05-05T11:10:25.311Z,29.60
2023-05-05T11:11:25.337Z,29.59
2023-05-05T11:12:25.395Z,29.60
2023-05-05T11:13:25.430Z,29.61
2023-05-05T11:14:25.414Z,29.60
2023-05-05T11:15:25.438Z,29.60
2023-05-05T11:16:25.461Z,29.62
2023-05-05T11:17:25.441Z,29.62
2023-05-05T11:18:25.471Z,29.60
2023-05-05T11:19:25.479Z,29.65
2023-05-05T11:20:25.450Z,29.65
2023-05-05T11:21:25.456Z,29.66
2023-05-05T11:22:25.459Z,29.67
2023-05-05T11:23:25.469Z,29.66
2023-05-05T11:24:25.485Z,29.68
2023-05-05T11:25:25.450Z,29.68
2023-05-05T11:26:25.503Z,29.69
2023-05-05T11:27:25.548Z,29.69
2023-05-05T11:28:25.545Z,29.69
2023-05-05T11:29:25.534Z,29.69
2023-05-05T11:30:25.606Z,29.69
2023-05-05T11:31:25.618Z,29.73
2023-05-05T11:32:25.713Z,29.73
2023-05-05T11:33:25.658Z,29.72
2023-05-05T11:34:25.921Z,29.73
2023-05-05T11:35:25.714Z,29.71
2023-05-05T11:36:25.719Z,29.72
2023-05-05T11:37:25.712Z,29.75
2023-05-05T11:38:25.706Z,29.76
2023-05-05T11:39:25.707Z,29.73
2023-05-05T11:40:25.697Z,29.73
2023-05-05T11:41:25.707Z,29.74
2023-05-05T11:42:25.828Z,29.74
2023-05-05T11:43:25.717Z,29.76
2023-05-05T11:44:25.685Z,29.78
2023-05-05T11:45:25.752Z,29.80
2023-05-05T11:46:25.711Z,29.80
2023-05-05T11:47:25.679Z,29.80
2023-05-05T11:48:25.805Z,29.79
2023-05-05T11:49:25.695Z,29.81
2023-05-05T11:50:25.885Z,29.81
2023-05-05T11:51:25.678Z,29.81
2023-05-05T11:52:25.684Z,29.82
2023-05-05T11:53:25.628Z,29.83
2023-05-05T11:54:25.681Z,29.85
2023-05-05T11:55:25.652Z,29.84
2023-05-05T11:56:25.620Z,29.86
2023-05-05T11:57:25.637Z,29.84
2023-05-05T11:58:25.657Z,29.85
2023-05-05T11:59:25.632Z,29.86
2023-05-05T12:00:25.636Z,29.87
2023-05-05T12:01:25.647Z,29.92
2023-05-05T12:02:25.674Z,29.91
2023-05-05T12:03:25.798Z,29.90
2023-05-05T12:04:25.806Z,29.90
2023-05-05T12:05:25.637Z,29.91
2023-05-05T12:06:25.652Z,29.92
2023-05-05T12:07:25.643Z,29.93
2023-05-05T12:08:25.601Z,29.90
2023-05-05T12:09:25.636Z,29.91
2023-05-05T12:10:25.652Z,29.92
2023-05-05T12:11:25.672Z,29.92
2023-05-05T12:12:25.743Z,29.91
2023-05-05T12:13:26.024Z,29.91
2023-05-05T12:14:25.872Z,29.91
2023-05-05T12:15:25.879Z,29.94
2023-05-05T12:16:25.957Z,29.92
2023-05-05T12:17:25.989Z,29.94
2023-05-05T12:18:26.031Z,29.92
2023-05-05T12:19:26.077Z,29.94
2023-05-05T12:20:26.232Z,29.95
2023-05-05T12:21:26.126Z,29.93
2023-05-05T12:22:26.185Z,29.96
2023-05-05T12:23:26.248Z,29.94
2023-05-05T12:24:26.263Z,29.94
2023-05-05T12:25:26.308Z,29.96
2023-05-05T12:26:26.362Z,29.97
2023-05-05T12:27:26.428Z,29.95
2023-05-05T12:28:26.452Z,29.98
2023-05-05T12:29:26.484Z,29.99
2023-05-05T12:30:26.519Z,29.99
2023-05-05T12:31:26.578Z,29.98
2023-05-05T12:32:26.601Z,29.99
2023-05-05T12:33:26.634Z,29.97
2023-05-05T12:34:26.651Z,29.95
2023-05-05T12:35:26.700Z,29.95
2023-05-05T12:36:28.654Z,29.95
2023-05-05T12:37:26.747Z,29.94
2023-05-05T12:38:26.755Z,29.94
2023-05-05T12:39:26.748Z,29.93
2023-05-05T12:40:26.826Z,29.93
2023-05-05T12:41:26.810Z,29.92
2023-05-05T12:42:26.845Z,29.94
2023-05-05T12:43:26.917Z,29.94
2023-05-05T12:44:26.977Z,29.96
2023-05-05T12:45:27.007Z,29.97
2023-05-05T12:46:27.135Z,29.98
2023-05-05T12:47:27.105Z,30.00
2023-05-05T12:48:27.132Z,29.99
2023-05-05T12:49:27.172Z,29.98
2023-05-05T12:50:27.235Z,29.97
2023-05-05T12:51:27.304Z,29.92
2023-05-05T12:52:27.446Z,29.89
2023-05-05T12:53:27.366Z,29.90